createdAt,value
2023-01-19T00:00:39.100Z,45.95
2023-01-19T00:04:39.567Z,45.87
2023-01-19T00:07:39.070Z,46.07
2023-01-19T00:10:47.466Z,45.39
2023-01-19T00:14:39.356Z,46.26
2023-01-19T00:17:39.160Z,45.95
2023-01-19T00:22:45.792Z,46.17
2023-01-19T00:25:39.108Z,45.99
2023-01-19T00:27:39.112Z,45.88
2023-01-19T00:30:45.924Z,45.63
2023-01-19T00:33:39.110Z,45.29
2023-01-19T00:35:39.932Z,45.77
2023-01-19T00:38:39.999Z,45.88
2023-01-19T00:41:39.512Z,45.79
2023-01-19T00:44:39.075Z,46.23
2023-01-19T00:46:39.507Z,46.04
2023-01-19T00:49:39.051Z,46.53
2023-01-19T00:51:39.163Z,46.42
2023-01-19T00:54:39.065Z,45.68
2023-01-19T00:56:39.199Z,46.62
2023-01-19T00:59:39.048Z,46.33
2023-01-19T01:01:44.883Z,46.29
2023-01-19T01:04:39.079Z,45.36
2023-01-19T01:06:39.208Z,46.15
2023-01-19T01:09:39.739Z,45.08
2023-01-19T01:12:39.663Z,45.62
2023-01-19T01:15:39.054Z,45.28
2023-01-19T01:17:39.393Z,46.01
2023-01-19T01:20:39.042Z,46.14
2023-01-19T01:23:39.380Z,45.61
2023-01-19T01:26:39.076Z,46.88
2023-01-19T01:29:39.072Z,46.67
2023-01-19T01:32:39.251Z,46.41
2023-01-19T01:35:39.640Z,46.56
2023-01-19T01:38:39.213Z,46.07
2023-01-19T01:41:39.628Z,46.89
2023-01-19T01:43:39.843Z,46.83
2023-01-19T01:47:39.048Z,46.74
2023-01-19T01:49:39.077Z,45.3
2023-01-19T01:51:39.080Z,45.7
2023-01-19T01:53:39.115Z,46.98
2023-01-19T01:56:39.719Z,46.87
2023-01-19T01:59:39.766Z,45.85
2023-01-19T02:02:39.323Z,46.23
2023-01-19T02:05:39.334Z,46.72
2023-01-19T02:08:39.183Z,46.77
2023-01-19T02:11:39.045Z,46.64
2023-01-19T02:14:39.044Z,47.02
2023-01-19T02:16:39.113Z,47.04
2023-01-19T02:19:39.330Z,46.21
2023-01-19T02:22:39.071Z,46.31
2023-01-19T02:25:39.042Z,47.24
2023-01-19T02:27:39.034Z,46.86
2023-01-19T02:29:39.279Z,46.94
2023-01-19T02:33:39.193Z,45.8
2023-01-19T02:35:39.566Z,46.81
2023-01-19T02:38:39.066Z,46.22
2023-01-19T02:41:39.119Z,46.72
2023-01-19T02:43:39.033Z,46.49
2023-01-19T02:45:39.200Z,46.56
2023-01-19T02:47:39.318Z,46.81
2023-01-19T02:50:39.343Z,47.23
2023-01-19T02:53:39.073Z,46.7
2023-01-19T02:56:39.580Z,48.08
2023-01-19T02:59:39.010Z,48.39
2023-01-19T03:01:39.705Z,48.93
2023-01-19T03:03:39.829Z,49.03
2023-01-19T03:06:39.052Z,49.22
2023-01-19T03:08:39.105Z,49.5
2023-01-19T03:11:39.519Z,48.51
2023-01-19T03:14:39.449Z,49.6
2023-01-19T03:16:40.006Z,48.97
2023-01-19T03:20:46.271Z,48.58
2023-01-19T03:22:46.329Z,48.63
2023-01-19T03:25:39.719Z,48.43
2023-01-19T03:28:39.079Z,47.93
2023-01-19T03:30:39.101Z,47.77
2023-01-19T03:32:39.174Z,47.58
2023-01-19T03:34:39.290Z,48.42
2023-01-19T03:37:39.089Z,48.18
2023-01-19T03:40:39.018Z,47.59
2023-01-19T03:42:39.593Z,46.81
2023-01-19T03:44:39.903Z,46.83
2023-01-19T03:47:39.019Z,47.13
2023-01-19T03:51:39.036Z,47.21
2023-01-19T03:53:39.183Z,47.69
2023-01-19T03:56:45.639Z,47.46
2023-01-19T03:58:46.193Z,47.33
2023-01-19T04:01:39.704Z,47.69
2023-01-19T04:04:39.064Z,47.72
2023-01-19T04:06:45.683Z,47.57
2023-01-19T04:09:39.095Z,47.62
2023-01-19T04:12:39.165Z,47.75
2023-01-19T04:14:39.934Z,47.87
2023-01-19T04:17:39.089Z,47.79
2023-01-19T04:20:39.420Z,48.04
2023-01-19T04:22:39.930Z,48.12
2023-01-19T04:24:39.992Z,47.67
2023-01-19T04:28:39.031Z,47.4
2023-01-19T04:30:39.501Z,48.14
2023-01-19T04:33:39.066Z,47.84
2023-01-19T04:35:39.235Z,47.47
2023-01-19T04:40:38.735Z,48.07
2023-01-19T04:43:39.038Z,48.31
2023-01-19T04:45:45.639Z,47.15
2023-01-19T04:48:59.518Z,47.78
2023-01-19T04:51:45.671Z,47.83
2023-01-19T04:55:39.771Z,47.82
2023-01-19T04:59:39.016Z,47.88
2023-01-19T05:01:45.653Z,47.79
2023-01-19T05:04:39.024Z,48.02
2023-01-19T05:06:39.726Z,48.04
2023-01-19T05:10:39.037Z,47.9
2023-01-19T05:12:45.815Z,48.1
2023-01-19T05:15:44.800Z,48.56
2023-01-19T05:17:52.229Z,48.73
2023-01-19T05:20:45.621Z,48.66
2023-01-19T05:22:46.201Z,49.01
2023-01-19T05:25:52.674Z,49.16
2023-01-19T05:28:52.247Z,49.23
2023-01-19T05:31:44.812Z,49.25
2023-01-19T05:34:39.039Z,49.66
2023-01-19T05:36:39.058Z,49.63
2023-01-19T05:38:39.036Z,49.65
2023-01-19T05:40:52.703Z,49.37
2023-01-19T05:43:46.242Z,49.61
2023-01-19T05:46:45.700Z,49.88
2023-01-19T05:48:46.320Z,49.54
2023-01-19T05:51:52.572Z,49.66
2023-01-19T05:54:59.473Z,49.78
2023-01-19T05:57:46.331Z,49.72
2023-01-19T06:00:45.620Z,49.93
2023-01-19T06:03:39.029Z,50.61
2023-01-19T06:07:39.407Z,50.75
2023-01-19T06:09:45.615Z,50.88
2023-01-19T06:12:52.203Z,51.28
2023-01-19T06:14:52.499Z,51.49
2023-01-19T06:17:45.980Z,51.55
2023-01-19T06:20:45.985Z,51.47
2023-01-19T06:22:46.284Z,51.55
2023-01-19T06:25:45.834Z,51.68
2023-01-19T06:28:45.631Z,51.86
2023-01-19T06:30:45.668Z,52.07
2023-01-19T06:32:52.885Z,51.87
2023-01-19T06:35:45.756Z,51.73
2023-01-19T06:39:39.349Z,51.66
2023-01-19T06:41:39.624Z,51.69
2023-01-19T06:45:52.623Z,51.91
2023-01-19T06:48:46.367Z,52
2023-01-19T06:51:50.079Z,52.13
2023-01-19T06:54:46.093Z,52.33
2023-01-19T06:57:39.007Z,52.02
2023-01-19T06:59:52.712Z,52.04
2023-01-19T07:02:46.594Z,52.3
2023-01-19T07:05:39.629Z,52.19
2023-01-19T07:08:39.043Z,52.17
2023-01-19T07:11:21.718Z,52.14
2023-01-19T07:12:46.252Z,52.16
2023-01-19T07:16:39.092Z,52.45
2023-01-19T07:18:52.740Z,52.5
2023-01-19T07:21:45.729Z,52.4
2023-01-19T07:24:39.020Z,52.22
2023-01-19T07:26:39.362Z,52.19
2023-01-19T07:29:39.667Z,52.27
2023-01-19T07:32:45.647Z,52.41
2023-01-19T07:34:46.019Z,52.4
2023-01-19T07:37:39.024Z,52.55
2023-01-19T07:39:39.628Z,52.63
2023-01-19T07:41:39.949Z,52.6
2023-01-19T07:44:46.210Z,52.75
2023-01-19T07:47:39.683Z,52.85
2023-01-19T07:50:39.287Z,52.71
2023-01-19T07:53:39.517Z,52.98
2023-01-19T07:56:46.415Z,52.86
2023-01-19T08:00:52.505Z,52.79
2023-01-19T08:03:52.359Z,52.7
2023-01-19T08:06:39.117Z,52.65
2023-01-19T08:09:39.044Z,52.7
2023-01-19T08:12:39.365Z,52.76
2023-01-19T08:14:39.985Z,52.69
2023-01-19T08:17:39.190Z,52.69
2023-01-19T08:19:41.505Z,52.9
2023-01-19T08:22:39.812Z,52.73
2023-01-19T08:25:38.999Z,52.97
2023-01-19T08:27:39.147Z,53.04
2023-01-19T08:29:39.144Z,53.04
2023-01-19T08:32:45.613Z,52.94
2023-01-19T08:36:52.638Z,52.98
2023-01-19T08:39:45.631Z,53.31
2023-01-19T08:42:52.192Z,53.28
2023-01-19T08:45:45.604Z,53.47
2023-01-19T08:49:52.669Z,53.29
2023-01-19T08:52:45.847Z,53.31
2023-01-19T08:55:38.994Z,53.31
2023-01-19T08:59:39.865Z,53.16
2023-01-19T09:02:45.666Z,53.06
2023-01-19T09:04:46.100Z,53.07
2023-01-19T09:07:52.183Z,52.67
2023-01-19T09:10:45.774Z,52.95
2023-01-19T09:13:39.024Z,52.86
2023-01-19T09:15:39.796Z,52.86
2023-01-19T09:18:39.111Z,52.91
2023-01-19T09:21:39.056Z,53.04
2023-01-19T09:23:39.148Z,53.13
2023-01-19T09:25:45.615Z,53.22
2023-01-19T09:27:46.052Z,53
2023-01-19T09:30:39.684Z,52.88
2023-01-19T09:33:39.057Z,52.51
2023-01-19T09:36:53.181Z,52.45
2023-01-19T09:39:39.011Z,52.55
2023-01-19T09:41:39.155Z,52.06
2023-01-19T09:44:39.478Z,51.9
2023-01-19T09:47:39.043Z,51.72
2023-01-19T09:49:39.132Z,51.71
2023-01-19T09:52:39.521Z,51.65
2023-01-19T09:55:39.000Z,51.6
2023-01-19T09:58:39.051Z,51.52
2023-01-19T10:01:39.052Z,51.45
2023-01-19T10:04:39.151Z,51.21
2023-01-19T10:07:39.917Z,51.46
2023-01-19T10:10:39.757Z,51.01
2023-01-19T10:13:39.162Z,51.31
2023-01-19T10:15:39.434Z,51.07
2023-01-19T10:17:39.643Z,51.22
2023-01-19T10:20:39.221Z,51.07
2023-01-19T10:24:38.093Z,51.03
2023-01-19T10:26:45.932Z,51.03
2023-01-19T10:29:52.734Z,50.95
2023-01-19T10:32:45.621Z,50.73
2023-01-19T10:34:45.615Z,50.53
2023-01-19T10:36:58.784Z,50.02
2023-01-19T10:39:45.859Z,49.95
2023-01-19T10:43:39.051Z,49.65
2023-01-19T10:45:39.527Z,48.58
2023-01-19T10:47:39.902Z,48.35
2023-01-19T10:51:38.102Z,47.85
2023-01-19T10:53:45.674Z,48.09
2023-01-19T10:56:39.070Z,47.56
2023-01-19T10:59:39.038Z,46.18
2023-01-19T11:01:52.462Z,46.35
2023-01-19T11:04:39.635Z,46.65
2023-01-19T11:07:39.044Z,45.68
2023-01-19T11:09:39.025Z,46.57
2023-01-19T11:11:39.360Z,46.7
2023-01-19T11:13:46.312Z,46.1
2023-01-19T11:16:39.077Z,46.1
2023-01-19T11:18:39.125Z,45.11
2023-01-19T11:21:39.413Z,44.69
2023-01-19T11:25:45.730Z,43.85
2023-01-19T11:28:39.040Z,45.28
2023-01-19T11:30:39.074Z,45.52
2023-01-19T11:32:39.027Z,44.7
2023-01-19T11:35:39.040Z,43.94
2023-01-19T11:37:39.676Z,43.27
2023-01-19T11:41:45.608Z,44.2
2023-01-19T11:43:49.141Z,42.96
2023-01-19T11:46:47.968Z,43.6
2023-01-19T11:48:46.186Z,44.59
2023-01-19T11:52:41.227Z,43.96
2023-01-19T11:56:38.187Z,43.38
2023-01-19T11:58:45.611Z,45.12
2023-01-19T12:01:52.826Z,44.49
2023-01-19T12:04:46.116Z,45.45
2023-01-19T12:08:39.012Z,42.82
2023-01-19T12:10:39.055Z,43.64
2023-01-19T12:12:52.223Z,43.72
2023-01-19T12:16:39.350Z,43.32
2023-01-19T12:18:39.708Z,44.01
2023-01-19T12:23:45.607Z,43.48
2023-01-19T12:26:39.075Z,43.65
2023-01-19T12:28:39.627Z,43.3
2023-01-19T12:30:39.926Z,43.64
2023-01-19T12:33:39.419Z,42.5
2023-01-19T12:36:39.450Z,43.92
2023-01-19T12:41:46.491Z,42.76
2023-01-19T12:44:38.113Z,43.68
2023-01-19T12:46:52.856Z,42.76
2023-01-19T12:50:39.174Z,42.08
2023-01-19T12:52:39.178Z,42.42
2023-01-19T12:55:39.092Z,42.46
2023-01-19T12:57:39.136Z,42.41
2023-01-19T13:01:39.882Z,43.1
2023-01-19T13:04:39.047Z,42.46
2023-01-19T13:07:45.925Z,42.22
2023-01-19T13:10:39.206Z,42.75
2023-01-19T13:13:39.126Z,42.12
2023-01-19T13:15:39.942Z,42.28
2023-01-19T13:18:39.340Z,42.11
2023-01-19T13:21:39.073Z,42.06
2023-01-19T13:23:39.777Z,42.88
2023-01-19T13:26:39.205Z,42.46
2023-01-19T13:28:39.448Z,42.82
2023-01-19T13:30:39.576Z,42.7
2023-01-19T13:32:47.695Z,43.13
2023-01-19T13:36:40.033Z,42.56
2023-01-19T13:41:45.611Z,42.28
2023-01-19T13:43:45.640Z,42.13
2023-01-19T13:46:39.078Z,41.85
2023-01-19T13:48:39.042Z,42.06
2023-01-19T13:51:39.083Z,43.95
2023-01-19T13:53:39.588Z,43.21
2023-01-19T13:56:39.086Z,42.5
2023-01-19T13:58:39.278Z,41.95
2023-01-19T14:00:39.841Z,42.8
2023-01-19T14:03:39.033Z,42.01
2023-01-19T14:06:39.060Z,43.54
2023-01-19T14:09:39.547Z,42.63
2023-01-19T14:11:39.574Z,42.36
2023-01-19T14:13:39.810Z,42.14
2023-01-19T14:17:39.453Z,43.13
2023-01-19T14:20:39.326Z,42.47
2023-01-19T14:23:39.070Z,41.32
2023-01-19T14:25:52.172Z,42.21
2023-01-19T14:28:45.693Z,42.45
2023-01-19T14:30:52.937Z,42.95
2023-01-19T14:33:52.285Z,42.44
2023-01-19T14:36:39.242Z,43.39
2023-01-19T14:39:39.065Z,42.16
2023-01-19T14:43:39.013Z,42.9
2023-01-19T14:45:46.164Z,42.42
2023-01-19T14:49:39.512Z,41.58
2023-01-19T14:52:39.009Z,41.39
2023-01-19T14:54:44.684Z,40.98
2023-01-19T14:56:46.038Z,40.69
2023-01-19T14:58:46.514Z,40.69
2023-01-19T15:01:39.302Z,40.01
2023-01-19T15:03:44.612Z,40.27
2023-01-19T15:06:38.092Z,40.55
2023-01-19T15:08:46.043Z,40.52
2023-01-19T15:11:39.001Z,40.95
2023-01-19T15:14:39.024Z,40.52
2023-01-19T15:17:46.464Z,41.42
2023-01-19T15:20:45.837Z,41.29
2023-01-19T15:25:52.614Z,42.06
2023-01-19T15:28:52.166Z,42.43
2023-01-19T15:33:12.476Z,42.98
2023-01-19T15:35:45.614Z,41.55
2023-01-19T15:37:45.635Z,42.05
2023-01-19T15:39:46.145Z,42.11
2023-01-19T15:43:45.592Z,42.52
2023-01-19T15:45:45.658Z,43.45
2023-01-19T15:47:46.142Z,43.51
2023-01-19T15:51:52.543Z,43.55
2023-01-19T15:55:52.254Z,43.57
2023-01-19T15:58:52.779Z,45.19
2023-01-19T16:01:44.758Z,44.2
2023-01-19T16:04:39.647Z,43.86
2023-01-19T16:08:39.084Z,44.12
2023-01-19T16:12:13.637Z,43.61
2023-01-19T16:14:27.312Z,45.03
2023-01-19T16:17:11.842Z,44.52
2023-01-19T16:19:15.226Z,44.3
2023-01-19T16:21:18.661Z,45.03
2023-01-19T16:23:21.984Z,45.01
2023-01-19T16:25:25.419Z,44.73
2023-01-19T16:28:40.733Z,44.82
2023-01-19T16:30:54.488Z,45.43
2023-01-19T16:33:38.953Z,45.19
2023-01-19T16:35:42.341Z,45.64
2023-01-19T16:37:45.720Z,46.16
2023-01-19T16:39:49.186Z,45.45
2023-01-19T16:41:52.521Z,45.6
2023-01-19T16:44:47.324Z,45.77
2023-01-19T16:47:52.381Z,45.83
2023-01-19T16:50:16.349Z,44.91
2023-01-19T16:52:20.750Z,46.09
2023-01-19T16:54:53.064Z,45.66
2023-01-19T16:58:42.778Z,46.52
2023-01-19T17:01:42.869Z,46.48
2023-01-19T17:04:42.803Z,45.81
2023-01-19T17:06:53.059Z,46.8
2023-01-19T17:08:53.077Z,46.74
2023-01-19T17:12:42.792Z,46.85
2023-01-19T17:14:42.810Z,46.42
2023-01-19T17:16:53.150Z,47.02
2023-01-19T17:19:53.069Z,47.02
2023-01-19T17:23:42.769Z,47.1
2023-01-19T17:27:42.766Z,47.01
2023-01-19T17:29:42.766Z,45.72
2023-01-19T17:32:05.034Z,47.21
2023-01-19T17:34:53.100Z,46.44
2023-01-19T17:38:42.817Z,47.42
2023-01-19T17:41:53.078Z,46.67
2023-01-19T17:43:53.064Z,47.16
2023-01-19T17:46:53.071Z,47.56
2023-01-19T17:50:42.799Z,47.92
2023-01-19T17:52:42.821Z,47.55
2023-01-19T17:55:53.078Z,47.73
2023-01-19T17:57:53.068Z,47.09
2023-01-19T18:00:13.889Z,47.71
2023-01-19T18:02:53.148Z,47.33
2023-01-19T18:05:53.115Z,46.96
2023-01-19T18:08:42.867Z,47.5
2023-01-19T18:10:42.794Z,47.26
2023-01-19T18:13:53.053Z,46.49
2023-01-19T18:15:53.123Z,46.76
2023-01-19T18:18:42.786Z,46.87
2023-01-19T18:20:42.828Z,46.53
2023-01-19T18:22:42.823Z,46.65
2023-01-19T18:24:53.048Z,46.73
2023-01-19T18:26:55.561Z,47.14
2023-01-19T18:30:42.967Z,45.99
2023-01-19T18:34:42.798Z,46.83
2023-01-19T18:37:03.380Z,47.05
2023-01-19T18:39:53.047Z,46.4
2023-01-19T18:42:42.813Z,46.58
2023-01-19T18:45:05.109Z,46.1
2023-01-19T18:47:53.086Z,46.87
2023-01-19T18:51:03.376Z,46.13
2023-01-19T18:53:53.081Z,46.75
2023-01-19T18:56:42.927Z,46.87
2023-01-19T19:00:42.807Z,46.84
2023-01-19T19:03:42.835Z,47.09
2023-01-19T19:05:53.250Z,47.05
2023-01-19T19:08:42.810Z,47.2
2023-01-19T19:11:42.787Z,47.49
2023-01-19T19:14:53.080Z,47.38
2023-01-19T19:18:42.856Z,47.16
2023-01-19T19:22:42.819Z,47.04
2023-01-19T19:25:03.340Z,47.02
2023-01-19T19:27:03.344Z,47.09
2023-01-19T19:30:42.789Z,47.24
2023-01-19T19:32:42.809Z,47.03
2023-01-19T19:35:53.073Z,47.58
2023-01-19T19:38:42.860Z,47.69
2023-01-19T19:41:05.061Z,47.49
2023-01-19T19:43:53.072Z,47.59
2023-01-19T19:46:05.133Z,47.76
2023-01-19T19:48:53.061Z,47.5
2023-01-19T19:51:42.804Z,47.58
2023-01-19T19:54:42.795Z,47.17
2023-01-19T19:57:54.095Z,47.14
2023-01-19T20:00:53.149Z,47.42
2023-01-19T20:03:42.785Z,47.43
2023-01-19T20:06:42.802Z,47.54
2023-01-19T20:08:53.060Z,47.55
2023-01-19T20:10:53.031Z,47.83
2023-01-19T20:13:42.786Z,47.74
2023-01-19T20:16:42.801Z,47.95
2023-01-19T20:18:42.732Z,48.01
2023-01-19T20:20:42.831Z,47.83
2023-01-19T20:24:42.811Z,48.17
2023-01-19T20:28:42.803Z,48.22
2023-01-19T20:32:42.817Z,48.26
2023-01-19T20:34:53.042Z,48.13
2023-01-19T20:36:53.085Z,48.08
2023-01-19T20:39:42.817Z,48.11
2023-01-19T20:41:42.799Z,47.84
2023-01-19T20:43:53.063Z,48.22
2023-01-19T20:45:53.117Z,48.24
2023-01-19T20:48:42.836Z,48.38
2023-01-19T20:51:42.786Z,48.31
2023-01-19T20:53:53.066Z,47.82
2023-01-19T20:56:42.820Z,48.49
2023-01-19T20:59:42.776Z,48.41
2023-01-19T21:01:43.023Z,48.3
2023-01-19T21:04:53.068Z,48.15
2023-01-19T21:06:53.064Z,48.2
2023-01-19T21:09:42.782Z,48.14
2023-01-19T21:11:42.788Z,48.17
2023-01-19T21:14:42.796Z,47.89
2023-01-19T21:17:45.015Z,48.16
2023-01-19T21:20:42.760Z,48.21
2023-01-19T21:23:36.749Z,48.08
2023-01-19T21:26:42.747Z,48.27
2023-01-19T21:28:53.134Z,48.18
2023-01-19T21:31:53.077Z,48.43
2023-01-19T21:35:42.785Z,48.03
2023-01-19T21:38:53.078Z,47.92
2023-01-19T21:40:53.151Z,48.42
2023-01-19T21:43:42.762Z,48.32
2023-01-19T21:46:42.780Z,48.06
2023-01-19T21:48:53.270Z,48.33
2023-01-19T21:51:42.797Z,48.03
2023-01-19T21:55:42.824Z,48.24
2023-01-19T21:57:53.050Z,48.05
2023-01-19T21:59:53.076Z,48.28
2023-01-19T22:02:03.500Z,48.34
2023-01-19T22:04:53.074Z,48.84
2023-01-19T22:06:53.097Z,48.72
2023-01-19T22:09:42.755Z,49.15
2023-01-19T22:11:42.772Z,48.96
2023-01-19T22:13:42.795Z,48.87
2023-01-19T22:15:53.154Z,48.35
2023-01-19T22:18:42.792Z,48.38
2023-01-19T22:21:42.775Z,48.14
2023-01-19T22:24:42.773Z,48.3
2023-01-19T22:26:53.092Z,48.51
2023-01-19T22:29:42.778Z,48.62
2023-01-19T22:31:42.838Z,48.48
2023-01-19T22:33:42.784Z,48.56
2023-01-19T22:36:42.798Z,48.78
2023-01-19T22:39:42.810Z,48.73
2023-01-19T22:41:42.843Z,48.92
2023-01-19T22:44:42.862Z,48.8
2023-01-19T22:47:53.004Z,48.77
2023-01-19T22:49:53.026Z,48.04
2023-01-19T22:52:42.729Z,48.92
2023-01-19T22:54:42.775Z,49.24
2023-01-19T22:56:42.809Z,48.54
2023-01-19T22:58:53.028Z,48.73
2023-01-19T23:01:42.932Z,48.48
2023-01-19T23:04:42.773Z,48.87
2023-01-19T23:07:42.785Z,48.67
2023-01-19T23:09:53.023Z,49.07
2023-01-19T23:13:42.788Z,49.01
2023-01-19T23:16:42.817Z,48.69
2023-01-19T23:18:54.116Z,48.84
2023-01-19T23:22:03.353Z,48.85
2023-01-19T23:24:53.034Z,48.43
2023-01-19T23:28:03.433Z,47.96
2023-01-19T23:30:53.115Z,48.03
2023-01-19T23:33:42.792Z,48.48
2023-01-19T23:36:42.884Z,48.35
2023-01-19T23:39:53.070Z,48.39
2023-01-19T23:43:42.800Z,48.57
2023-01-19T23:46:05.065Z,48.58
2023-01-19T23:48:53.075Z,49.37
2023-01-19T23:51:42.769Z,49.27
2023-01-19T23:53:42.786Z,49.28
2023-01-19T23:55:42.843Z,48.78
2023-01-19T23:58:42.761Z,48.65
